Архив погоды в Ростове Великом

Метеограмма Ростов Великий
Среда, 17 Октября
Время местн. Темп Ветер Видим Явления Облачность нижн/средн/верх Атм. давл. Влжн Точка росы ВНГО R Сост. почвы Tg s
Напр Скр Прв ур.ст ур.м изм
15:00 +12.9° З,С-З 1 - 50 км - облачно 761 770 +0.2 65% +6.5° 1 км - - - -
12:00 +11.9° С-З 1 - 40 км - облачно 761 770 +1.1 71% +6.9° 1 км - - - -
09:00 +8.9° С 2 - 40 км - облачно 759 769 +1.4 81% +5.8° - - - - -
06:00 +6.4° З,С-З 1 - 23 км - переменная облачность 758 768 +0.8 86% +4.2° более 2.5 км - - - -
03:00 +8.6° З,С-З 1 - 22 км - ясно 757 767 +0.5 75% +4.4° более 2.5 км - - - -
00:00 +11° З,С-З 3 - 22 км - ясно 757 766 -0.2 64% +4.5° более 2.5 км - - - -
Вторник, 16 Октября
Время местн. Темп Ветер Видим Явления Облачность нижн/средн/верх Атм. давл. Влжн Точка росы ВНГО R Сост. почвы Tg s
Напр Скр Прв ур.ст ур.м изм
21:00 +9.4° З 1 - 24 км - ясно 757 766 -0.5 72% +4.6° более 2.5 км - - - -
18:00 +9.3° Ю-З 1 - 25 км - переменная облачность 758 767 -0.6 73% +4.8° - - - - -
15:00 +17° З 3 - 22 км - переменная облачность 758 767 -0.9 43% +4.3° более 2.5 км - - - -
12:00 +13.9° Ю-З 2 - 21 км - преимущественно облачно 759 768 -0.5 61% +6.6° - - - - -
09:00 +7.1° Ю,Ю-З 1 - 18 км - облачно с прояснениями 759 769 -0.2 96% +6.5° - - - - -
06:00 +3.8° Ю,Ю-З 1 - 20 км - ясно 760 769 -0.2 97% +3.4° более 2.5 км - Влажная (без луж) - -
03:00 +6.1° Ю,Ю-З 2 - 20 км - ясно 760 769 0 97% +5.6° более 2.5 км - - - -
00:00 +6.4° штиль 0 - 20 км - ясно 760 769 +0.1 97% +5.9° более 2.5 км - - - -
Понедельник, 15 Октября
Время местн. Темп Ветер Видим Явления Облачность нижн/средн/верх Атм. давл. Влжн Точка росы ВНГО R Сост. почвы Tg s
Напр Скр Прв ур.ст ур.м изм
21:00 +8.9° Ю,Ю-З 2 - 20 км - ясно 760 769 -0.5 95% +8.1° более 2.5 км - - - -
18:00 +11° Ю-З 1 - - - ясно 760 770 -0.2 85% +8.5° более 2.5 км - - - -
15:00 +17° С,С-З 3 - 20 км - ясно 761 770 -0.2 62% +9.6° более 2.5 км - - - -
12:00 +14.5° З,С-З 4 - - - ясно 761 770 +0.4 72% +9.5° более 2.5 км - - - -
09:00 +11.5° З,С-З 3 - 20 км - ясно 760 770 +0.6 87% +9.4° более 2.5 км - - - -
06:00 +9.8° С,С-З 2 - 20 км - ясно 760 769 +0.3 91% +8.4° более 2.5 км - - - -
03:00 +11.1° С-З 3 - 20 км - ясно 759 769 +0.4 86% +8.8° более 2.5 км - - - -
00:00 +13.1° С,С-З 3 - 20 км - ясно 759 768 +0.5 77% +9.1° более 2.5 км - - - -
Воскресенье, 14 Октября
Время местн. Темп Ветер Видим Явления Облачность нижн/средн/верх Атм. давл. Влжн Точка росы ВНГО R Сост. почвы Tg s
Напр Скр Прв ур.ст ур.м изм
21:00 +13.7° С-З 4 - 20 км - ясно 759 768 0 76% +9.6° более 2.5 км - - - -
18:00 +13.4° З,С-З 2 - 11 км - облачно с прояснениями 759 768 -0.7 80% +10.1° 1 км - - - -
15:00 +14.4° С-З 2 - 20 км - преимущественно облачно 759 768 -0.7 70% +8.9° 1 км - - - -
12:00 +11.5° С-З 2 - 11 км - облачно 760 769 +0.1 92% +10.2° 1 км - - - -